Time;durP1;ratioP1;P1;durP2;ratioP2;P2;SDS_P1;SDS_P2;PMS_P1;PMS_P2;Temp;Humidity;BMP_temperature;BMP_pressure;BME280_temperature;BME280_humidity;BME280_pressure;Samples;Min_cycle;Max_cycle;Signal;HPM_P1;HPM_P2
2021/10/19 00:02:26;;;;;;;26.10;17.45;;;8.00;99.90;;;;;;5036878;28;20237;-77
2021/10/19 00:04:53;;;;;;;30.25;17.13;;;8.00;99.90;;;;;;5035115;28;20246;-77
2021/10/19 00:07:21;;;;;;;32.40;16.90;;;8.00;99.90;;;;;;5035185;28;20257;-77
2021/10/19 00:09:48;;;;;;;26.65;15.07;;;8.00;99.90;;;;;;5034995;28;20667;-76
2021/10/19 00:12:15;;;;;;;23.67;16.52;;;8.00;99.90;;;;;;5035400;28;20207;-76
2021/10/19 00:14:42;;;;;;;46.08;19.65;;;8.00;99.90;;;;;;5035288;28;20258;-77
2021/10/19 00:17:09;;;;;;;39.40;17.35;;;8.00;99.90;;;;;;5036408;28;20203;-77
2021/10/19 00:19:37;;;;;;;23.50;15.05;;;8.00;99.90;;;;;;5034891;28;20260;-75
2021/10/19 00:22:04;;;;;;;27.05;15.60;;;7.90;99.90;;;;;;5035405;28;20765;-77
2021/10/19 00:24:32;;;;;;;29.17;15.82;;;7.90;99.90;;;;;;5039624;28;20207;-77
2021/10/19 00:27:00;;;;;;;38.20;15.63;;;7.90;99.90;;;;;;5035102;28;20211;-77
2021/10/19 00:29:27;;;;;;;34.92;16.15;;;7.90;99.90;;;;;;5036469;28;20235;-76
2021/10/19 00:31:54;;;;;;;26.75;16.85;;;7.90;99.90;;;;;;5037370;28;20223;-77
2021/10/19 00:34:21;;;;;;;25.67;15.48;;;7.90;99.90;;;;;;5047814;28;20231;-76
2021/10/19 00:36:48;;;;;;;27.02;16.80;;;7.90;99.90;;;;;;5049329;28;20278;-76
2021/10/19 00:39:15;;;;;;;36.22;17.90;;;8.00;99.90;;;;;;5048738;28;20207;-77
2021/10/19 00:41:44;;;;;;;29.85;16.33;;;8.00;99.90;;;;;;5049960;28;20303;-77
2021/10/19 00:44:11;;;;;;;32.53;15.45;;;8.00;99.90;;;;;;5045799;28;20231;-77
2021/10/19 00:46:40;;;;;;;45.30;16.48;;;7.90;99.90;;;;;;5036800;28;20214;-76
2021/10/19 00:49:07;;;;;;;23.65;14.93;;;7.90;99.90;;;;;;5043052;28;20302;-77
2021/10/19 00:51:34;;;;;;;24.15;14.73;;;7.80;99.90;;;;;;5040923;28;20220;-77
2021/10/19 00:54:01;;;;;;;27.42;14.00;;;7.80;99.90;;;;;;5039297;28;20254;-77
2021/10/19 00:56:28;;;;;;;20.75;13.60;;;7.80;99.90;;;;;;5039357;28;20267;-77
2021/10/19 00:58:56;;;;;;;22.02;14.98;;;7.90;99.90;;;;;;5034795;28;20229;-77
2021/10/19 01:01:25;;;;;;;21.75;13.95;;;7.90;99.90;;;;;;5037401;28;20206;-77
2021/10/19 01:03:51;;;;;;;26.65;15.25;;;7.90;99.90;;;;;;5036518;28;20281;-77
2021/10/19 01:06:18;;;;;;;26.67;14.55;;;8.00;99.90;;;;;;5034911;28;20214;-76
2021/10/19 01:08:46;;;;;;;29.27;16.90;;;8.00;99.90;;;;;;5036372;28;20207;-76
2021/10/19 01:11:13;;;;;;;23.55;15.50;;;7.90;99.90;;;;;;5035477;28;20217;-77
2021/10/19 01:13:40;;;;;;;23.90;15.77;;;7.90;99.90;;;;;;5034204;28;20274;-77
2021/10/19 01:16:10;;;;;;;25.05;15.07;;;7.90;99.90;;;;;;5016705;28;20298;-77
2021/10/19 01:18:37;;;;;;;23.08;14.48;;;8.00;99.90;;;;;;5024967;28;20211;-77
2021/10/19 01:21:07;;;;;;;22.35;14.75;;;8.10;99.90;;;;;;5033178;28;20209;-76
2021/10/19 01:23:34;;;;;;;26.35;14.98;;;8.10;99.90;;;;;;5038606;28;20216;-76
2021/10/19 01:26:03;;;;;;;23.00;13.77;;;8.10;99.90;;;;;;5038370;28;20206;-76
2021/10/19 01:28:30;;;;;;;21.88;14.13;;;8.10;99.90;;;;;;5038180;28;20176;-76
2021/10/19 01:30:58;;;;;;;22.30;14.05;;;8.00;99.90;;;;;;5037421;28;20252;-76
2021/10/19 01:33:25;;;;;;;26.65;14.32;;;8.10;99.90;;;;;;5037805;28;20212;-76
2021/10/19 01:35:52;;;;;;;23.27;13.65;;;8.00;99.90;;;;;;5037453;28;20208;-75
2021/10/19 01:38:24;;;;;;;22.55;14.25;;;8.00;99.90;;;;;;5038066;28;20276;-76
2021/10/19 01:40:51;;;;;;;18.17;13.75;;;8.00;99.90;;;;;;5037368;28;20210;-76
2021/10/19 01:43:20;;;;;;;23.63;15.05;;;8.10;99.90;;;;;;5037164;28;20299;-76
2021/10/19 01:45:49;;;;;;;22.42;13.77;;;8.10;99.90;;;;;;5036531;28;20306;-77
2021/10/19 01:48:17;;;;;;;20.75;13.90;;;8.10;99.90;;;;;;5023096;28;20212;-77
2021/10/19 01:50:45;;;;;;;18.55;11.98;;;8.10;99.90;;;;;;5021676;28;20271;-77
2021/10/19 01:53:12;;;;;;;21.58;13.23;;;8.10;99.90;;;;;;5016796;28;20319;-77
2021/10/19 01:55:41;;;;;;;19.90;13.30;;;8.00;99.90;;;;;;5021420;28;20214;-77
2021/10/19 01:58:09;;;;;;;18.88;12.52;;;8.10;99.90;;;;;;5023014;28;20307;-76
2021/10/19 02:00:37;;;;;;;25.00;14.43;;;7.90;99.90;;;;;;5027778;28;20219;-77
2021/10/19 02:03:05;;;;;;;24.80;14.00;;;8.00;99.90;;;;;;5029646;28;20314;-77
2021/10/19 02:05:32;;;;;;;23.58;14.20;;;8.10;99.90;;;;;;5032292;28;20287;-77
2021/10/19 02:08:00;;;;;;;20.60;13.20;;;8.00;99.90;;;;;;5033607;28;20715;-77
2021/10/19 02:10:27;;;;;;;24.40;13.35;;;8.10;99.90;;;;;;5031273;28;20207;-77
2021/10/19 02:12:55;;;;;;;18.55;12.55;;;8.10;99.90;;;;;;5032477;28;20235;-77
2021/10/19 02:15:26;;;;;;;17.98;12.10;;;8.10;99.90;;;;;;5036936;28;20192;-76
2021/10/19 02:17:53;;;;;;;16.52;12.13;;;8.10;99.90;;;;;;5036888;28;20204;-76
2021/10/19 02:20:20;;;;;;;15.80;12.15;;;8.10;99.90;;;;;;5036899;28;20203;-76
2021/10/19 02:22:47;;;;;;;17.95;11.70;;;7.90;99.90;;;;;;5033399;28;20227;-76
2021/10/19 02:25:14;;;;;;;17.45;12.13;;;8.00;99.90;;;;;;5034589;28;20202;-76
2021/10/19 02:27:40;;;;;;;18.67;11.40;;;8.00;99.90;;;;;;5036944;28;20192;-77
2021/10/19 02:30:10;;;;;;;19.33;12.80;;;8.00;99.90;;;;;;5033502;28;20306;-76
2021/10/19 02:32:39;;;;;;;18.15;13.15;;;8.10;99.90;;;;;;5027304;28;20208;-77
2021/10/19 02:35:07;;;;;;;19.35;14.10;;;8.00;99.90;;;;;;5024122;28;20202;-77
2021/10/19 02:37:34;;;;;;;20.50;13.50;;;8.00;99.90;;;;;;5039065;28;20222;-77
2021/10/19 02:40:01;;;;;;;19.70;13.30;;;8.00;99.90;;;;;;5039711;28;20237;-77
2021/10/19 02:42:28;;;;;;;20.63;14.13;;;8.00;99.90;;;;;;5040951;28;20245;-77
2021/10/19 02:44:55;;;;;;;18.13;13.68;;;8.10;99.90;;;;;;5041116;28;20235;-78
2021/10/19 02:47:23;;;;;;;21.05;14.05;;;8.10;99.90;;;;;;5039441;28;20203;-77
2021/10/19 02:49:50;;;;;;;16.60;12.70;;;8.00;99.90;;;;;;5038865;28;20207;-77
2021/10/19 02:52:17;;;;;;;20.55;13.60;;;8.10;99.90;;;;;;5036354;28;20281;-77
2021/10/19 02:54:44;;;;;;;19.88;13.40;;;8.20;99.90;;;;;;5034973;28;20227;-77
2021/10/19 02:57:11;;;;;;;18.52;12.52;;;8.10;99.90;;;;;;5041282;28;20215;-78
2021/10/19 02:59:38;;;;;;;18.48;13.20;;;8.10;99.90;;;;;;5041657;28;20249;-79
2021/10/19 03:02:05;;;;;;;21.17;13.27;;;8.00;99.90;;;;;;5046392;28;20207;-78
2021/10/19 03:04:33;;;;;;;16.52;12.45;;;7.90;99.90;;;;;;5046805;28;20300;-80
2021/10/19 03:07:00;;;;;;;15.82;11.52;;;8.00;99.90;;;;;;5049505;28;20726;-79
2021/10/19 03:09:27;;;;;;;20.25;12.23;;;7.90;99.90;;;;;;5057916;28;20298;-79
2021/10/19 03:11:54;;;;;;;15.02;10.55;;;8.00;99.90;;;;;;5059462;28;20222;-78
2021/10/19 03:14:21;;;;;;;17.85;12.55;;;8.00;99.90;;;;;;5060407;28;20230;-78
2021/10/19 03:16:48;;;;;;;15.20;12.07;;;7.90;99.90;;;;;;5056836;28;20218;-78
2021/10/19 03:19:15;;;;;;;14.50;10.80;;;8.00;99.90;;;;;;5047227;28;20278;-77
2021/10/19 03:21:43;;;;;;;13.32;10.43;;;8.10;99.90;;;;;;5046857;28;20211;-77
2021/10/19 03:24:10;;;;;;;12.98;10.02;;;8.10;99.90;;;;;;5046617;28;20318;-78
2021/10/19 03:26:37;;;;;;;12.55;9.70;;;8.10;99.90;;;;;;5045778;28;20230;-78
2021/10/19 03:29:04;;;;;;;13.40;10.35;;;8.10;99.90;;;;;;5048007;28;20282;-77
2021/10/19 03:31:35;;;;;;;13.13;9.52;;;8.20;99.90;;;;;;5045088;28;20274;-78
2021/10/19 03:34:02;;;;;;;12.05;9.95;;;8.20;99.90;;;;;;5046217;28;20249;-78
2021/10/19 03:36:28;;;;;;;12.38;10.10;;;8.30;99.90;;;;;;5047343;28;20294;-77
2021/10/19 03:38:57;;;;;;;13.35;9.80;;;8.30;99.90;;;;;;5045017;28;20270;-78
2021/10/19 03:41:24;;;;;;;13.70;10.20;;;8.20;99.90;;;;;;5027848;28;20277;-78
2021/10/19 03:43:51;;;;;;;12.23;9.70;;;8.20;99.90;;;;;;5037276;28;20227;-79
2021/10/19 03:46:18;;;;;;;14.20;10.05;;;8.20;99.90;;;;;;5027474;28;20218;-78
2021/10/19 03:48:45;;;;;;;12.60;9.98;;;8.20;99.90;;;;;;5027955;28;20235;-78
2021/10/19 03:51:12;;;;;;;14.85;10.95;;;8.20;99.90;;;;;;5040755;28;20249;-77
2021/10/19 03:53:38;;;;;;;14.27;10.75;;;8.20;99.90;;;;;;5041218;28;20715;-78
2021/10/19 03:56:07;;;;;;;13.85;10.45;;;8.20;99.90;;;;;;5028167;28;20234;-78
2021/10/19 03:58:35;;;;;;;13.05;10.73;;;8.30;99.90;;;;;;5034948;28;20200;-78
2021/10/19 04:01:02;;;;;;;12.30;9.52;;;8.30;99.90;;;;;;5043915;28;20203;-78
2021/10/19 04:03:29;;;;;;;12.20;9.90;;;8.30;99.90;;;;;;5052457;28;20470;-79
2021/10/19 04:05:56;;;;;;;12.82;10.05;;;8.30;99.90;;;;;;5046511;28;20211;-79
2021/10/19 04:08:22;;;;;;;12.40;10.25;;;8.40;99.90;;;;;;5049273;28;20271;-81
2021/10/19 04:10:49;;;;;;;12.70;9.50;;;8.40;99.90;;;;;;5050006;28;20231;-79
2021/10/19 04:13:18;;;;;;;12.85;9.50;;;8.50;99.90;;;;;;5047279;28;20703;-79
2021/10/19 04:15:45;;;;;;;11.75;9.75;;;8.50;99.90;;;;;;5032744;28;20208;-81
2021/10/19 04:18:12;;;;;;;10.63;8.63;;;8.50;99.90;;;;;;5038748;28;20195;-79
2021/10/19 04:20:39;;;;;;;12.48;10.07;;;8.50;99.90;;;;;;5059062;28;20202;-79
2021/10/19 04:23:06;;;;;;;12.55;9.68;;;8.50;99.90;;;;;;5050117;28;20341;-80
2021/10/19 04:25:33;;;;;;;11.55;9.50;;;8.50;99.90;;;;;;5054078;28;20230;-79
2021/10/19 04:28:00;;;;;;;15.23;10.00;;;8.60;99.90;;;;;;5052511;28;20234;-82
2021/10/19 04:30:28;;;;;;;12.25;10.55;;;8.50;99.90;;;;;;5029720;28;20238;-79
2021/10/19 04:32:55;;;;;;;14.25;10.68;;;8.50;99.90;;;;;;5031369;28;20299;-79
2021/10/19 04:35:22;;;;;;;11.65;9.80;;;8.50;99.90;;;;;;5042404;28;20595;-80
2021/10/19 04:37:49;;;;;;;12.00;10.50;;;8.50;99.90;;;;;;5038711;28;20214;-80
2021/10/19 04:40:16;;;;;;;12.13;9.48;;;8.50;99.90;;;;;;5038414;28;20207;-79
2021/10/19 04:42:43;;;;;;;11.95;10.07;;;8.50;99.90;;;;;;5042702;28;20211;-79
2021/10/19 04:45:10;;;;;;;13.15;10.70;;;8.50;99.90;;;;;;5042165;28;20234;-80
2021/10/19 04:47:38;;;;;;;11.90;10.60;;;8.50;99.90;;;;;;5042493;28;20203;-80
2021/10/19 04:50:09;;;;;;;13.55;10.55;;;8.50;99.90;;;;;;5041157;28;20290;-79
2021/10/19 04:52:36;;;;;;;12.80;10.88;;;8.60;99.90;;;;;;5040239;28;20562;-79
2021/10/19 04:55:03;;;;;;;13.98;11.38;;;8.60;99.90;;;;;;5039721;28;20207;-79
2021/10/19 04:57:30;;;;;;;14.98;11.55;;;8.60;99.90;;;;;;5040723;28;20230;-79
2021/10/19 04:59:57;;;;;;;14.25;10.98;;;8.60;99.90;;;;;;5042011;28;20245;-79
2021/10/19 05:02:24;;;;;;;15.27;10.93;;;8.60;99.90;;;;;;5042154;28;20200;-79
2021/10/19 05:04:52;;;;;;;18.08;12.75;;;8.70;99.90;;;;;;5079224;22;20295;-80
2021/10/19 05:07:19;;;;;;;13.02;10.45;;;8.70;99.90;;;;;;5063415;28;20207;-81
2021/10/19 05:09:46;;;;;;;14.18;11.32;;;8.70;99.90;;;;;;5063643;28;20628;-80
2021/10/19 05:12:13;;;;;;;12.75;10.73;;;8.60;99.90;;;;;;5063412;28;20206;-80
2021/10/19 05:14:40;;;;;;;14.63;10.07;;;8.60;99.90;;;;;;5063498;28;20242;-80
2021/10/19 05:17:07;;;;;;;14.25;10.70;;;8.60;99.90;;;;;;5063777;28;20297;-81
2021/10/19 05:19:34;;;;;;;13.50;10.70;;;8.60;99.90;;;;;;5062046;28;20268;-82
2021/10/19 05:22:02;;;;;;;12.60;10.73;;;8.60;99.90;;;;;;5062766;28;20284;-80
2021/10/19 05:24:29;;;;;;;11.73;9.70;;;8.70;99.90;;;;;;5061925;28;20668;-80
2021/10/19 05:26:56;;;;;;;12.70;10.63;;;8.70;99.90;;;;;;5062003;28;20207;-80
2021/10/19 05:29:23;;;;;;;13.15;11.00;;;8.80;99.90;;;;;;5060521;28;20198;-81
2021/10/19 05:31:50;;;;;;;13.18;11.02;;;8.80;99.90;;;;;;5061602;28;20276;-81
2021/10/19 05:34:17;;;;;;;17.15;12.90;;;8.80;99.90;;;;;;5061038;28;20264;-80
2021/10/19 05:36:44;;;;;;;14.02;11.73;;;8.80;99.90;;;;;;5071108;28;20206;-81
2021/10/19 05:39:15;;;;;;;15.25;12.15;;;8.80;99.90;;;;;;5059717;28;20214;-80
2021/10/19 05:41:42;;;;;;;16.77;14.10;;;8.90;99.90;;;;;;5064538;28;20206;-81
2021/10/19 05:44:09;;;;;;;14.52;11.20;;;8.90;99.90;;;;;;5076455;28;20270;-81
2021/10/19 05:46:36;;;;;;;12.13;9.90;;;9.00;99.90;;;;;;5076878;28;20190;-81
2021/10/19 05:49:03;;;;;;;13.63;10.10;;;9.00;99.90;;;;;;5076687;28;20194;-81
2021/10/19 05:51:30;;;;;;;14.18;11.18;;;9.10;99.90;;;;;;5077398;28;20223;-81
2021/10/19 05:53:57;;;;;;;14.00;11.23;;;9.00;99.90;;;;;;5077314;28;20214;-80
2021/10/19 05:56:25;;;;;;;13.85;10.90;;;8.90;99.90;;;;;;5077349;28;20249;-81
2021/10/19 05:58:52;;;;;;;11.88;10.43;;;8.90;99.90;;;;;;5077015;28;20218;-82
2021/10/19 06:01:19;;;;;;;17.73;11.30;;;9.00;99.90;;;;;;5076826;28;20190;-81
2021/10/19 06:03:46;;;;;;;12.93;10.50;;;9.00;99.90;;;;;;5072775;28;20237;-81
2021/10/19 06:06:15;;;;;;;17.98;12.00;;;9.00;99.90;;;;;;5066538;28;20622;-81
2021/10/19 06:08:42;;;;;;;16.58;11.20;;;9.10;99.90;;;;;;5065847;28;20210;-81
2021/10/19 06:11:09;;;;;;;16.23;11.90;;;9.10;99.90;;;;;;5065944;28;20202;-81
2021/10/19 06:13:37;;;;;;;14.80;11.10;;;9.10;99.90;;;;;;5064086;28;20275;-81
2021/10/19 06:16:05;;;;;;;15.00;11.13;;;9.20;99.90;;;;;;5064017;28;20217;-81
2021/10/19 06:18:32;;;;;;;14.65;10.60;;;9.20;99.90;;;;;;5067167;28;20234;-81
2021/10/19 06:20:59;;;;;;;13.50;10.95;;;9.30;99.90;;;;;;5071816;28;20228;-81
2021/10/19 06:23:25;;;;;;;12.18;10.18;;;9.40;99.90;;;;;;5072983;28;20226;-82
2021/10/19 06:25:52;;;;;;;13.13;9.90;;;9.40;99.90;;;;;;5068974;28;20256;-81
2021/10/19 06:28:20;;;;;;;11.82;9.95;;;9.40;99.90;;;;;;5073096;28;20217;-80
2021/10/19 06:30:48;;;;;;;16.90;11.00;;;9.40;99.90;;;;;;5076394;28;20219;-81
2021/10/19 06:33:15;;;;;;;13.32;10.98;;;9.50;99.90;;;;;;5077522;28;20265;-80
2021/10/19 06:35:42;;;;;;;16.77;11.20;;;9.50;99.90;;;;;;5080923;28;20278;-81
2021/10/19 06:38:09;;;;;;;13.40;10.25;;;9.50;99.90;;;;;;5080300;28;20604;-80
2021/10/19 06:40:36;;;;;;;14.95;11.20;;;9.40;99.90;;;;;;5070054;28;20216;-81
2021/10/19 06:43:05;;;;;;;14.55;11.90;;;9.50;99.90;;;;;;5068870;28;20198;-80
2021/10/19 06:45:32;;;;;;;14.80;10.88;;;9.30;99.90;;;;;;5069397;28;20686;-81
2021/10/19 06:48:01;;;;;;;12.98;10.35;;;9.30;99.90;;;;;;5070518;28;20693;-80
2021/10/19 06:50:28;;;;;;;12.55;10.90;;;9.40;99.90;;;;;;5067365;28;20603;-80
2021/10/19 06:52:55;;;;;;;15.38;11.60;;;9.40;99.90;;;;;;5065771;28;20226;-80
2021/10/19 06:55:22;;;;;;;14.85;12.00;;;9.40;99.90;;;;;;5065681;28;20229;-80
2021/10/19 06:57:50;;;;;;;14.88;12.60;;;9.50;99.90;;;;;;5066443;28;20208;-80
2021/10/19 07:00:18;;;;;;;12.20;10.27;;;9.60;99.90;;;;;;5067530;28;20274;-80
2021/10/19 07:02:46;;;;;;;16.13;11.43;;;9.60;99.90;;;;;;5068306;28;20211;-80
2021/10/19 07:05:16;;;;;;;15.52;12.30;;;9.60;99.90;;;;;;5067578;28;20329;-79
2021/10/19 07:07:43;;;;;;;14.63;12.45;;;9.40;99.90;;;;;;5067942;28;20229;-80
2021/10/19 07:10:11;;;;;;;15.68;11.48;;;9.50;99.90;;;;;;5068665;28;20210;-79
2021/10/19 07:12:39;;;;;;;14.85;12.45;;;9.60;99.90;;;;;;5069059;28;20309;-80
2021/10/19 07:15:08;;;;;;;17.95;11.57;;;9.70;99.90;;;;;;5069423;28;20223;-80
2021/10/19 07:17:35;;;;;;;14.75;11.95;;;9.90;99.90;;;;;;5070008;28;20743;-80
2021/10/19 07:20:02;;;;;;;15.27;12.75;;;10.00;99.90;;;;;;5069671;28;20705;-81
2021/10/19 07:22:31;;;;;;;15.18;12.38;;;10.00;99.90;;;;;;5069840;28;20206;-80
2021/10/19 07:24:59;;;;;;;14.82;11.55;;;10.20;99.90;;;;;;5070191;28;20231;-80
2021/10/19 07:27:26;;;;;;;14.35;12.00;;;10.20;99.90;;;;;;5075531;28;20215;-80
2021/10/19 07:29:53;;;;;;;16.80;11.90;;;10.30;99.90;;;;;;5076780;28;20219;-80
2021/10/19 07:32:20;;;;;;;15.80;11.93;;;10.30;99.90;;;;;;5077006;28;20283;-80
2021/10/19 07:34:47;;;;;;;14.50;11.25;;;10.50;99.90;;;;;;5076423;28;20237;-80
2021/10/19 07:37:15;;;;;;;14.30;11.68;;;10.50;99.90;;;;;;5076534;28;20267;-79
2021/10/19 07:39:43;;;;;;;11.85;10.13;;;10.60;99.90;;;;;;5077563;28;20215;-79
2021/10/19 07:42:11;;;;;;;16.67;11.35;;;10.60;99.90;;;;;;5077850;28;20296;-80
2021/10/19 07:44:38;;;;;;;12.80;10.88;;;10.60;99.90;;;;;;5077470;28;20228;-80
2021/10/19 07:47:05;;;;;;;13.90;11.13;;;10.70;99.90;;;;;;5078898;28;20196;-79
2021/10/19 07:49:32;;;;;;;13.35;11.55;;;10.80;99.90;;;;;;5078559;28;20274;-81
2021/10/19 07:51:59;;;;;;;14.60;11.60;;;10.80;99.90;;;;;;5078632;28;20221;-80
2021/10/19 07:54:26;;;;;;;12.50;11.18;;;10.80;99.70;;;;;;5077733;28;20220;-79
2021/10/19 07:56:54;;;;;;;13.20;11.77;;;10.90;99.70;;;;;;5076964;28;20279;-81
2021/10/19 07:59:21;;;;;;;17.98;13.25;;;11.00;99.10;;;;;;5077350;28;20203;-81
2021/10/19 08:01:48;;;;;;;14.25;12.23;;;11.00;98.80;;;;;;5069623;28;20208;-80
2021/10/19 08:04:15;;;;;;;16.10;12.10;;;11.10;98.20;;;;;;5066821;28;20316;-80
2021/10/19 08:06:42;;;;;;;13.70;10.70;;;11.20;97.60;;;;;;5067870;28;20555;-81
2021/10/19 08:09:09;;;;;;;18.25;12.93;;;11.40;97.20;;;;;;5067980;28;20623;-81
2021/10/19 08:11:36;;;;;;;14.38;12.20;;;11.50;95.70;;;;;;5072433;28;20216;-81
2021/10/19 08:14:04;;;;;;;13.80;11.90;;;11.60;95.60;;;;;;5066819;28;20272;-81
2021/10/19 08:16:31;;;;;;;14.55;12.05;;;11.70;94.50;;;;;;5066865;28;20244;-80
2021/10/19 08:18:58;;;;;;;13.18;11.80;;;11.60;93.80;;;;;;5067106;28;20213;-80
2021/10/19 08:21:25;;;;;;;14.90;12.20;;;11.70;93.30;;;;;;5067829;28;20225;-81
2021/10/19 08:23:52;;;;;;;13.35;10.85;;;11.70;93.40;;;;;;5065705;28;20233;-82
2021/10/19 08:26:19;;;;;;;15.30;11.90;;;11.70;93.30;;;;;;5063129;28;20263;-81
2021/10/19 08:28:47;;;;;;;12.63;11.32;;;11.60;93.40;;;;;;5067765;28;20214;-80
2021/10/19 08:31:17;;;;;;;18.20;14.25;;;11.50;93.60;;;;;;5068029;28;20217;-81
2021/10/19 08:33:44;;;;;;;15.43;11.15;;;11.60;93.90;;;;;;5067346;28;20237;-80
2021/10/19 08:36:11;;;;;;;14.50;11.98;;;11.60;94.20;;;;;;5065672;28;20289;-80
2021/10/19 08:38:39;;;;;;;12.70;11.40;;;11.60;94.10;;;;;;5065335;28;20236;-82
2021/10/19 08:41:07;;;;;;;13.45;10.88;;;11.80;94.10;;;;;;5064655;28;20205;-80
2021/10/19 08:43:34;;;;;;;16.30;11.48;;;12.00;93.90;;;;;;5063406;28;20218;-81
2021/10/19 08:46:01;;;;;;;11.98;10.73;;;12.00;92.10;;;;;;5068007;28;20325;-80
2021/10/19 08:48:29;;;;;;;14.00;11.05;;;11.70;92.70;;;;;;5062270;28;20263;-80
2021/10/19 08:50:58;;;;;;;10.80;9.70;;;11.80;94.00;;;;;;5063435;28;20382;-81
2021/10/19 08:53:25;;;;;;;13.52;11.45;;;12.10;94.00;;;;;;5061633;28;20240;-81
2021/10/19 08:55:52;;;;;;;11.25;9.93;;;12.10;93.00;;;;;;5062869;28;20205;-80
2021/10/19 08:58:19;;;;;;;11.50;10.07;;;12.40;92.70;;;;;;5064466;28;20293;-80
2021/10/19 09:00:46;;;;;;;11.88;9.95;;;12.30;90.30;;;;;;5071553;28;20274;-80
2021/10/19 09:03:13;;;;;;;12.30;10.63;;;12.20;90.70;;;;;;5072738;28;20317;-81
2021/10/19 09:05:47;;;;;;;12.30;10.68;;;12.10;91.10;;;;;;5076994;28;20210;-82
2021/10/19 09:08:18;;;;;;;13.18;11.15;;;11.90;92.10;;;;;;5078001;28;20394;-80
2021/10/19 09:10:47;;;;;;;16.42;11.10;;;11.80;93.80;;;;;;5078045;28;20228;-80
2021/10/19 09:13:16;;;;;;;13.45;10.15;;;12.00;94.30;;;;;;5077837;28;20263;-80
2021/10/19 09:15:45;;;;;;;13.20;11.27;;;12.30;95.10;;;;;;5073245;28;20288;-81
2021/10/19 09:18:15;;;;;;;14.13;12.07;;;12.30;93.00;;;;;;5069063;28;20223;-80
2021/10/19 09:20:46;;;;;;;13.15;11.73;;;12.20;94.00;;;;;;5070235;28;20240;-82
2021/10/19 09:23:15;;;;;;;12.27;10.68;;;12.20;93.40;;;;;;5067046;28;20274;-81
2021/10/19 09:25:44;;;;;;;13.30;11.45;;;12.60;92.80;;;;;;5072678;28;20226;-81
2021/10/19 09:28:12;;;;;;;11.60;10.23;;;12.80;92.40;;;;;;5071336;28;20228;-82
2021/10/19 09:30:42;;;;;;;10.52;9.43;;;13.20;90.60;;;;;;5067840;28;20231;-82
2021/10/19 09:33:14;;;;;;;12.20;9.82;;;13.50;87.90;;;;;;5065104;28;20230;-81
2021/10/19 09:35:42;;;;;;;16.98;10.63;;;13.70;84.20;;;;;;5072105;28;20204;-82
2021/10/19 09:38:12;;;;;;;10.95;9.90;;;13.90;81.70;;;;;;5077683;28;20194;-81
2021/10/19 09:40:42;;;;;;;12.23;9.50;;;13.80;79.70;;;;;;5073773;28;20191;-82
2021/10/19 09:43:11;;;;;;;11.68;9.23;;;14.00;80.70;;;;;;5076670;28;20198;-81
2021/10/19 09:45:41;;;;;;;11.75;10.20;;;14.00;80.60;;;;;;5077443;28;20250;-81
2021/10/19 09:48:12;;;;;;;11.77;9.70;;;14.00;79.90;;;;;;5075668;28;20198;-81
2021/10/19 09:50:40;;;;;;;11.87;9.63;;;14.30;78.50;;;;;;5072773;28;20190;-81
2021/10/19 09:53:07;;;;;;;12.18;10.15;;;14.30;78.20;;;;;;5068734;28;20455;-81
2021/10/19 09:55:37;;;;;;;10.10;9.10;;;14.30;80.20;;;;;;5068929;28;20216;-82
2021/10/19 09:58:04;;;;;;;12.90;9.63;;;14.70;78.10;;;;;;5066194;28;20494;-81
2021/10/19 10:00:33;;;;;;;11.53;9.87;;;14.70;76.30;;;;;;5068910;28;20260;-82
2021/10/19 10:03:11;;;;;;;10.70;9.43;;;14.80;75.50;;;;;;5076351;28;20448;-82
2021/10/19 10:05:44;;;;;;;11.03;9.87;;;15.10;76.20;;;;;;5276968;22;20553;-82
2021/10/19 10:08:17;;;;;;;12.13;10.70;;;15.00;74.00;;;;;;5075628;28;20459;-82
2021/10/19 10:13:33;;;;;;;10.07;9.03;;;15.20;74.70;;;;;;5062009;28;20472;-81
2021/10/19 10:16:09;;;;;;;10.33;9.33;;;15.50;73.40;;;;;;5057262;28;20455;-82
2021/10/19 10:18:36;;;;;;;9.30;8.40;;;15.90;71.90;;;;;;5080337;23;20503;-78
2021/10/19 10:21:13;;;;;;;11.47;10.00;;;16.10;70.50;;;;;;5071493;28;20432;-79
2021/10/19 10:23:42;;;;;;;9.90;8.93;;;16.30;68.90;;;;;;5075936;28;20491;-79
2021/10/19 10:26:22;;;;;;;9.17;8.00;;;16.40;67.30;;;;;;5076098;28;20517;-80
2021/10/19 10:28:48;;;;;;;10.90;9.17;;;16.50;67.60;;;;;;5074535;28;20515;-78
2021/10/19 10:31:20;;;;;;;11.23;9.30;;;16.30;67.20;;;;;;5072309;28;20962;-78
2021/10/19 10:33:51;;;;;;;10.10;8.53;;;16.30;67.40;;;;;;5053569;28;20599;-78
2021/10/19 10:36:18;;;;;;;12.57;9.90;;;16.30;66.70;;;;;;5055825;28;20445;-77
2021/10/19 10:38:55;;;;;;;9.17;8.27;;;16.50;67.10;;;;;;5061753;28;20480;-77
2021/10/19 10:41:23;;;;;;;9.27;8.37;;;16.60;67.10;;;;;;5056345;28;20955;-78
2021/10/19 10:43:58;;;;;;;9.93;7.90;;;16.70;66.40;;;;;;5054340;28;20456;-78
2021/10/19 10:46:25;;;;;;;11.90;8.40;;;16.80;65.80;;;;;;5055065;28;20470;-78
2021/10/19 10:48:56;;;;;;;10.20;9.17;;;16.80;64.90;;;;;;5053090;28;20450;-78
2021/10/19 10:51:28;;;;;;;9.17;8.27;;;16.40;67.10;;;;;;5054063;28;20435;-79
2021/10/19 10:53:55;;;;;;;10.40;9.10;;;16.40;67.30;;;;;;5053506;28;20460;-79
2021/10/19 10:56:24;;;;;;;10.63;8.53;;;16.50;66.20;;;;;;5052597;28;20487;-79
2021/10/19 10:58:52;;;;;;;9.90;8.67;;;16.50;65.30;;;;;;5053288;28;20575;-78
2021/10/19 11:01:20;;;;;;;12.30;8.73;;;16.40;66.10;;;;;;5053899;28;20491;-79
2021/10/19 11:03:49;;;;;;;11.20;8.93;;;16.50;66.20;;;;;;5053826;28;20444;-78
2021/10/19 11:06:18;;;;;;;10.80;8.73;;;16.40;67.40;;;;;;5055106;28;20495;-79
2021/10/19 11:08:47;;;;;;;14.60;8.87;;;16.40;69.50;;;;;;5067280;28;20499;-78
2021/10/19 11:11:16;;;;;;;9.93;8.20;;;16.40;69.30;;;;;;5053037;28;20468;-79
2021/10/19 11:13:50;;;;;;;11.40;8.30;;;16.30;69.80;;;;;;5053571;28;20567;-79
2021/10/19 11:16:18;;;;;;;9.40;8.40;;;16.40;72.40;;;;;;5053421;28;20440;-79
2021/10/19 11:18:45;;;;;;;10.83;9.13;;;16.40;71.60;;;;;;5058222;28;20476;-79
2021/10/19 11:21:12;;;;;;;9.43;7.93;;;16.20;73.20;;;;;;5058355;28;20491;-78
2021/10/19 11:23:39;;;;;;;8.87;7.97;;;16.30;72.20;;;;;;5057109;28;20472;-79
2021/10/19 11:26:08;;;;;;;12.47;8.50;;;16.40;70.30;;;;;;5056739;28;20523;-78
2021/10/19 11:28:36;;;;;;;11.80;8.40;;;16.60;70.00;;;;;;5056275;28;20529;-78
2021/10/19 11:31:04;;;;;;;9.00;7.93;;;16.80;69.60;;;;;;5056552;28;20465;-78
2021/10/19 11:33:36;;;;;;;9.10;7.80;;;17.00;68.10;;;;;;5056840;28;20531;-78
2021/10/19 11:36:03;;;;;;;7.73;6.93;;;17.20;67.50;;;;;;5058482;28;20457;-78
2021/10/19 11:38:30;;;;;;;9.73;8.13;;;17.50;66.30;;;;;;5056700;28;20556;-78
2021/10/19 11:41:06;;;;;;;7.27;6.67;;;17.50;64.60;;;;;;5057182;28;20464;-78
2021/10/19 11:43:35;;;;;;;10.83;8.10;;;17.60;65.60;;;;;;5057427;28;20445;-79
2021/10/19 11:46:09;;;;;;;9.03;8.10;;;17.40;63.60;;;;;;5056757;28;20958;-78
2021/10/19 11:48:37;;;;;;;7.53;6.77;;;17.30;65.30;;;;;;5056985;28;20877;-77
2021/10/19 11:51:07;;;;;;;8.10;7.30;;;17.30;65.30;;;;;;5058634;28;20472;-78
2021/10/19 11:53:35;;;;;;;8.37;6.70;;;17.70;65.70;;;;;;5059136;28;20811;-79
2021/10/19 11:56:04;;;;;;;8.97;7.07;;;17.60;64.50;;;;;;5058205;28;20447;-79
2021/10/19 11:58:31;;;;;;;8.70;7.80;;;17.40;65.40;;;;;;5061657;28;20503;-81
2021/10/19 12:00:59;;;;;;;10.07;7.40;;;17.70;64.60;;;;;;5063819;28;20443;-79
2021/10/19 12:03:31;;;;;;;7.90;7.10;;;18.00;64.80;;;;;;5059397;28;20512;-78
2021/10/19 12:06:09;;;;;;;8.70;7.67;;;18.40;63.00;;;;;;5058844;28;20515;-79
2021/10/19 12:08:36;;;;;;;7.67;6.93;;;18.10;62.10;;;;;;5058689;28;20546;-76
2021/10/19 12:11:10;;;;;;;9.30;6.70;;;18.50;62.80;;;;;;5058165;28;20472;-78
2021/10/19 12:13:38;;;;;;;6.93;5.97;;;18.70;61.40;;;;;;5058496;28;20445;-78
2021/10/19 12:16:06;;;;;;;8.10;7.30;;;18.70;60.50;;;;;;5057018;28;20461;-79
2021/10/19 12:18:44;;;;;;;16.70;6.80;;;18.70;60.30;;;;;;5058199;28;20830;-78
2021/10/19 12:21:15;;;;;;;8.30;7.20;;;18.10;63.30;;;;;;5057489;28;20457;-78
2021/10/19 12:24:04;;;;;;;7.90;7.17;;;18.20;62.50;;;;;;5056448;28;20587;-79
2021/10/19 12:26:34;;;;;;;7.77;7.00;;;17.90;65.50;;;;;;5058222;28;20473;-78
2021/10/19 12:29:06;;;;;;;8.37;7.33;;;17.90;65.10;;;;;;5056691;28;20456;-78
2021/10/19 12:31:34;;;;;;;7.83;7.03;;;18.00;64.10;;;;;;5059879;28;20453;-77
2021/10/19 12:34:04;;;;;;;8.57;7.27;;;17.70;65.20;;;;;;5057604;28;20994;-79
2021/10/19 12:36:34;;;;;;;7.73;7.03;;;17.80;65.80;;;;;;5057554;28;20460;-79
2021/10/19 12:39:05;;;;;;;7.10;6.40;;;18.30;64.10;;;;;;5058490;28;21101;-78
2021/10/19 12:41:34;;;;;;;6.80;5.80;;;18.40;62.00;;;;;;5058647;28;20420;-77
2021/10/19 12:44:02;;;;;;;9.03;5.37;;;18.60;58.70;;;;;;5057563;28;20956;-79
2021/10/19 12:46:30;;;;;;;8.23;4.77;;;18.70;58.00;;;;;;5057258;28;20492;-78